sensor_id;sensor_type;location;lat;lon;timestamp;P1;durP1;ratioP1;P2;durP2;ratioP2
5585;SDS011;2815;54.094;12.112;2023-04-07T00:00:47;9.95;;;5.38;;
5585;SDS011;2815;54.094;12.112;2023-04-07T00:03:16;10.50;;;4.75;;
5585;SDS011;2815;54.094;12.112;2023-04-07T00:05:45;8.52;;;4.63;;
5585;SDS011;2815;54.094;12.112;2023-04-07T00:08:13;9.82;;;4.68;;
5585;SDS011;2815;54.094;12.112;2023-04-07T00:10:41;8.52;;;4.55;;
5585;SDS011;2815;54.094;12.112;2023-04-07T00:13:09;8.13;;;4.25;;
5585;SDS011;2815;54.094;12.112;2023-04-07T00:15:37;9.65;;;4.22;;
5585;SDS011;2815;54.094;12.112;2023-04-07T00:18:05;8.25;;;4.20;;
5585;SDS011;2815;54.094;12.112;2023-04-07T00:20:34;6.70;;;4.18;;
5585;SDS011;2815;54.094;12.112;2023-04-07T00:23:02;12.75;;;5.15;;
5585;SDS011;2815;54.094;12.112;2023-04-07T00:25:30;7.55;;;3.90;;
5585;SDS011;2815;54.094;12.112;2023-04-07T00:27:59;6.93;;;4.03;;
5585;SDS011;2815;54.094;12.112;2023-04-07T00:30:27;9.13;;;4.32;;
5585;SDS011;2815;54.094;12.112;2023-04-07T00:32:55;9.57;;;4.25;;
5585;SDS011;2815;54.094;12.112;2023-04-07T00:35:23;8.27;;;4.03;;
5585;SDS011;2815;54.094;12.112;2023-04-07T00:37:53;9.27;;;4.40;;
5585;SDS011;2815;54.094;12.112;2023-04-07T00:40:21;9.32;;;4.88;;
5585;SDS011;2815;54.094;12.112;2023-04-07T00:42:49;10.55;;;4.22;;
5585;SDS011;2815;54.094;12.112;2023-04-07T00:45:17;9.05;;;4.28;;
5585;SDS011;2815;54.094;12.112;2023-04-07T00:47:45;11.07;;;4.88;;
5585;SDS011;2815;54.094;12.112;2023-04-07T00:50:13;12.45;;;4.72;;
5585;SDS011;2815;54.094;12.112;2023-04-07T00:52:41;7.47;;;4.35;;
5585;SDS011;2815;54.094;12.112;2023-04-07T00:55:11;9.60;;;4.32;;
5585;SDS011;2815;54.094;12.112;2023-04-07T00:57:39;10.43;;;4.70;;
5585;SDS011;2815;54.094;12.112;2023-04-07T01:00:08;7.20;;;3.88;;
5585;SDS011;2815;54.094;12.112;2023-04-07T01:02:40;10.40;;;4.35;;
5585;SDS011;2815;54.094;12.112;2023-04-07T01:05:12;10.98;;;4.70;;
5585;SDS011;2815;54.094;12.112;2023-04-07T01:07:45;9.25;;;4.68;;
5585;SDS011;2815;54.094;12.112;2023-04-07T01:10:19;7.72;;;3.60;;
5585;SDS011;2815;54.094;12.112;2023-04-07T01:13:13;9.13;;;4.35;;
5585;SDS011;2815;54.094;12.112;2023-04-07T01:15:51;8.18;;;4.60;;
5585;SDS011;2815;54.094;12.112;2023-04-07T01:18:25;11.25;;;4.35;;
5585;SDS011;2815;54.094;12.112;2023-04-07T01:20:58;7.45;;;4.20;;
5585;SDS011;2815;54.094;12.112;2023-04-07T01:23:30;8.05;;;4.38;;
5585;SDS011;2815;54.094;12.112;2023-04-07T01:26:10;8.57;;;4.45;;
5585;SDS011;2815;54.094;12.112;2023-04-07T01:28:48;9.35;;;4.18;;
5585;SDS011;2815;54.094;12.112;2023-04-07T01:31:40;9.25;;;4.97;;
5585;SDS011;2815;54.094;12.112;2023-04-07T01:34:09;8.00;;;3.90;;
5585;SDS011;2815;54.094;12.112;2023-04-07T01:36:37;8.65;;;4.07;;
5585;SDS011;2815;54.094;12.112;2023-04-07T01:39:05;7.53;;;3.63;;
5585;SDS011;2815;54.094;12.112;2023-04-07T01:41:34;10.07;;;4.35;;
5585;SDS011;2815;54.094;12.112;2023-04-07T01:44:03;12.05;;;4.20;;
5585;SDS011;2815;54.094;12.112;2023-04-07T01:46:31;8.50;;;4.07;;
5585;SDS011;2815;54.094;12.112;2023-04-07T01:49:01;7.68;;;4.00;;
5585;SDS011;2815;54.094;12.112;2023-04-07T01:51:29;9.13;;;4.30;;
5585;SDS011;2815;54.094;12.112;2023-04-07T01:53:59;9.18;;;3.50;;
5585;SDS011;2815;54.094;12.112;2023-04-07T01:56:28;9.50;;;4.25;;
5585;SDS011;2815;54.094;12.112;2023-04-07T01:58:57;8.75;;;3.83;;
5585;SDS011;2815;54.094;12.112;2023-04-07T02:01:25;9.13;;;3.65;;
5585;SDS011;2815;54.094;12.112;2023-04-07T02:03:55;10.40;;;3.78;;
5585;SDS011;2815;54.094;12.112;2023-04-07T02:06:26;6.65;;;3.70;;
5585;SDS011;2815;54.094;12.112;2023-04-07T02:08:59;9.52;;;3.72;;
5585;SDS011;2815;54.094;12.112;2023-04-07T02:11:31;5.70;;;3.67;;
5585;SDS011;2815;54.094;12.112;2023-04-07T02:14:03;9.48;;;3.85;;
5585;SDS011;2815;54.094;12.112;2023-04-07T02:16:41;7.25;;;3.38;;
5585;SDS011;2815;54.094;12.112;2023-04-07T02:19:12;7.32;;;3.50;;
5585;SDS011;2815;54.094;12.112;2023-04-07T02:21:42;7.90;;;3.45;;
5585;SDS011;2815;54.094;12.112;2023-04-07T02:24:11;8.82;;;3.80;;
5585;SDS011;2815;54.094;12.112;2023-04-07T02:26:41;6.28;;;3.25;;
5585;SDS011;2815;54.094;12.112;2023-04-07T02:29:09;6.70;;;3.58;;
5585;SDS011;2815;54.094;12.112;2023-04-07T02:31:37;8.80;;;3.60;;
5585;SDS011;2815;54.094;12.112;2023-04-07T02:34:05;6.35;;;3.83;;
5585;SDS011;2815;54.094;12.112;2023-04-07T02:36:33;6.80;;;3.25;;
5585;SDS011;2815;54.094;12.112;2023-04-07T02:39:06;9.68;;;3.83;;
5585;SDS011;2815;54.094;12.112;2023-04-07T02:41:35;9.02;;;3.58;;
5585;SDS011;2815;54.094;12.112;2023-04-07T02:44:03;10.05;;;3.55;;
5585;SDS011;2815;54.094;12.112;2023-04-07T02:46:31;10.50;;;3.42;;
5585;SDS011;2815;54.094;12.112;2023-04-07T02:48:59;8.48;;;3.13;;
5585;SDS011;2815;54.094;12.112;2023-04-07T02:51:27;7.75;;;3.33;;
5585;SDS011;2815;54.094;12.112;2023-04-07T02:53:55;8.18;;;3.60;;
5585;SDS011;2815;54.094;12.112;2023-04-07T02:56:25;7.93;;;3.28;;
5585;SDS011;2815;54.094;12.112;2023-04-07T02:58:53;10.23;;;3.35;;
5585;SDS011;2815;54.094;12.112;2023-04-07T03:01:21;8.02;;;3.05;;
5585;SDS011;2815;54.094;12.112;2023-04-07T03:03:49;7.75;;;2.85;;
5585;SDS011;2815;54.094;12.112;2023-04-07T03:06:21;5.60;;;3.10;;
5585;SDS011;2815;54.094;12.112;2023-04-07T03:09:05;8.07;;;3.45;;
5585;SDS011;2815;54.094;12.112;2023-04-07T03:11:34;6.75;;;3.13;;
5585;SDS011;2815;54.094;12.112;2023-04-07T03:14:02;7.25;;;3.00;;
5585;SDS011;2815;54.094;12.112;2023-04-07T03:16:33;6.97;;;3.53;;
5585;SDS011;2815;54.094;12.112;2023-04-07T03:19:10;4.55;;;2.65;;
5585;SDS011;2815;54.094;12.112;2023-04-07T03:21:42;9.18;;;3.17;;
5585;SDS011;2815;54.094;12.112;2023-04-07T03:24:11;6.88;;;3.22;;
5585;SDS011;2815;54.094;12.112;2023-04-07T03:26:40;5.95;;;2.95;;
5585;SDS011;2815;54.094;12.112;2023-04-07T03:29:17;6.65;;;2.83;;
5585;SDS011;2815;54.094;12.112;2023-04-07T03:31:46;8.45;;;2.90;;
5585;SDS011;2815;54.094;12.112;2023-04-07T03:34:17;7.50;;;2.92;;
5585;SDS011;2815;54.094;12.112;2023-04-07T03:36:45;11.32;;;2.80;;
5585;SDS011;2815;54.094;12.112;2023-04-07T03:39:14;8.10;;;3.13;;
5585;SDS011;2815;54.094;12.112;2023-04-07T03:41:44;6.40;;;2.47;;
5585;SDS011;2815;54.094;12.112;2023-04-07T03:44:13;4.72;;;2.55;;
5585;SDS011;2815;54.094;12.112;2023-04-07T03:46:41;5.47;;;2.95;;
5585;SDS011;2815;54.094;12.112;2023-04-07T03:49:11;7.93;;;3.22;;
5585;SDS011;2815;54.094;12.112;2023-04-07T03:51:39;8.80;;;2.70;;
5585;SDS011;2815;54.094;12.112;2023-04-07T03:54:13;4.65;;;2.83;;
5585;SDS011;2815;54.094;12.112;2023-04-07T03:56:42;6.30;;;2.40;;
5585;SDS011;2815;54.094;12.112;2023-04-07T03:59:14;9.27;;;2.72;;
5585;SDS011;2815;54.094;12.112;2023-04-07T04:01:51;7.35;;;2.70;;
5585;SDS011;2815;54.094;12.112;2023-04-07T04:04:19;2.95;;;2.10;;
5585;SDS011;2815;54.094;12.112;2023-04-07T04:06:50;8.73;;;2.97;;
5585;SDS011;2815;54.094;12.112;2023-04-07T04:09:44;4.72;;;2.58;;
5585;SDS011;2815;54.094;12.112;2023-04-07T04:12:12;8.65;;;2.63;;
5585;SDS011;2815;54.094;12.112;2023-04-07T04:14:50;5.47;;;2.45;;
5585;SDS011;2815;54.094;12.112;2023-04-07T04:17:19;5.85;;;2.42;;
5585;SDS011;2815;54.094;12.112;2023-04-07T04:19:47;4.97;;;2.60;;
5585;SDS011;2815;54.094;12.112;2023-04-07T04:22:35;10.40;;;2.53;;
5585;SDS011;2815;54.094;12.112;2023-04-07T04:25:03;6.30;;;2.55;;
5585;SDS011;2815;54.094;12.112;2023-04-07T04:27:32;3.65;;;2.22;;
5585;SDS011;2815;54.094;12.112;2023-04-07T04:30:10;5.78;;;2.50;;
5585;SDS011;2815;54.094;12.112;2023-04-07T04:32:46;4.15;;;2.00;;
5585;SDS011;2815;54.094;12.112;2023-04-07T04:35:16;5.35;;;2.30;;
5585;SDS011;2815;54.094;12.112;2023-04-07T04:38:03;4.65;;;2.40;;
5585;SDS011;2815;54.094;12.112;2023-04-07T04:40:32;4.95;;;2.17;;
5585;SDS011;2815;54.094;12.112;2023-04-07T04:43:01;5.70;;;2.40;;
5585;SDS011;2815;54.094;12.112;2023-04-07T04:48:06;7.82;;;2.40;;
5585;SDS011;2815;54.094;12.112;2023-04-07T04:50:34;5.72;;;2.13;;
5585;SDS011;2815;54.094;12.112;2023-04-07T04:55:42;4.53;;;2.20;;
5585;SDS011;2815;54.094;12.112;2023-04-07T04:58:17;6.85;;;2.30;;
5585;SDS011;2815;54.094;12.112;2023-04-07T05:00:52;4.78;;;2.60;;
5585;SDS011;2815;54.094;12.112;2023-04-07T05:03:28;3.83;;;2.25;;
5585;SDS011;2815;54.094;12.112;2023-04-07T05:06:01;3.67;;;2.45;;
5585;SDS011;2815;54.094;12.112;2023-04-07T05:08:30;3.75;;;2.40;;
5585;SDS011;2815;54.094;12.112;2023-04-07T05:10:59;5.93;;;2.58;;
5585;SDS011;2815;54.094;12.112;2023-04-07T05:13:31;5.35;;;2.75;;
5585;SDS011;2815;54.094;12.112;2023-04-07T05:16:03;3.58;;;2.22;;
5585;SDS011;2815;54.094;12.112;2023-04-07T05:18:34;7.95;;;2.85;;
5585;SDS011;2815;54.094;12.112;2023-04-07T05:21:03;5.68;;;2.67;;
5585;SDS011;2815;54.094;12.112;2023-04-07T05:23:33;7.47;;;2.67;;
5585;SDS011;2815;54.094;12.112;2023-04-07T05:26:03;4.82;;;2.67;;
5585;SDS011;2815;54.094;12.112;2023-04-07T05:28:31;7.15;;;3.05;;
5585;SDS011;2815;54.094;12.112;2023-04-07T05:31:05;4.43;;;2.38;;
5585;SDS011;2815;54.094;12.112;2023-04-07T05:33:34;7.53;;;2.75;;
5585;SDS011;2815;54.094;12.112;2023-04-07T05:36:02;6.47;;;2.65;;
5585;SDS011;2815;54.094;12.112;2023-04-07T05:38:31;10.38;;;2.40;;
5585;SDS011;2815;54.094;12.112;2023-04-07T05:41:07;5.40;;;2.40;;
5585;SDS011;2815;54.094;12.112;2023-04-07T05:43:35;8.38;;;2.92;;
5585;SDS011;2815;54.094;12.112;2023-04-07T05:46:06;6.72;;;2.97;;
5585;SDS011;2815;54.094;12.112;2023-04-07T05:48:42;5.65;;;2.60;;
5585;SDS011;2815;54.094;12.112;2023-04-07T05:51:10;5.43;;;2.85;;
5585;SDS011;2815;54.094;12.112;2023-04-07T05:53:38;5.70;;;2.80;;
5585;SDS011;2815;54.094;12.112;2023-04-07T05:56:06;8.27;;;2.42;;
5585;SDS011;2815;54.094;12.112;2023-04-07T05:58:45;3.38;;;2.40;;
5585;SDS011;2815;54.094;12.112;2023-04-07T06:01:16;4.85;;;2.70;;
5585;SDS011;2815;54.094;12.112;2023-04-07T06:03:44;4.07;;;2.38;;
5585;SDS011;2815;54.094;12.112;2023-04-07T06:08:45;4.47;;;2.25;;
5585;SDS011;2815;54.094;12.112;2023-04-07T06:11:13;4.40;;;2.00;;
5585;SDS011;2815;54.094;12.112;2023-04-07T06:13:41;8.55;;;2.53;;
5585;SDS011;2815;54.094;12.112;2023-04-07T06:16:09;3.40;;;2.42;;
5585;SDS011;2815;54.094;12.112;2023-04-07T06:18:39;3.70;;;2.30;;
5585;SDS011;2815;54.094;12.112;2023-04-07T06:21:07;4.85;;;2.58;;
5585;SDS011;2815;54.094;12.112;2023-04-07T06:23:35;6.85;;;2.60;;
5585;SDS011;2815;54.094;12.112;2023-04-07T06:26:06;8.52;;;2.65;;
5585;SDS011;2815;54.094;12.112;2023-04-07T06:28:36;8.32;;;2.33;;
5585;SDS011;2815;54.094;12.112;2023-04-07T06:31:04;3.50;;;2.13;;
5585;SDS011;2815;54.094;12.112;2023-04-07T06:33:34;6.88;;;2.40;;
5585;SDS011;2815;54.094;12.112;2023-04-07T06:36:04;5.18;;;3.10;;
5585;SDS011;2815;54.094;12.112;2023-04-07T06:38:34;4.25;;;2.47;;
5585;SDS011;2815;54.094;12.112;2023-04-07T06:41:02;5.97;;;2.35;;
5585;SDS011;2815;54.094;12.112;2023-04-07T06:43:31;4.10;;;2.20;;
5585;SDS011;2815;54.094;12.112;2023-04-07T06:46:01;4.25;;;2.28;;
5585;SDS011;2815;54.094;12.112;2023-04-07T06:48:29;3.75;;;2.17;;
5585;SDS011;2815;54.094;12.112;2023-04-07T06:50:57;4.60;;;2.42;;
5585;SDS011;2815;54.094;12.112;2023-04-07T06:53:27;2.42;;;1.75;;
5585;SDS011;2815;54.094;12.112;2023-04-07T06:56:04;5.07;;;2.22;;
5585;SDS011;2815;54.094;12.112;2023-04-07T06:58:33;4.60;;;2.50;;
5585;SDS011;2815;54.094;12.112;2023-04-07T07:01:01;4.00;;;2.08;;
5585;SDS011;2815;54.094;12.112;2023-04-07T07:03:30;6.43;;;2.30;;
5585;SDS011;2815;54.094;12.112;2023-04-07T07:05:59;4.35;;;2.00;;
5585;SDS011;2815;54.094;12.112;2023-04-07T07:08:28;2.95;;;1.58;;
5585;SDS011;2815;54.094;12.112;2023-04-07T07:10:57;4.47;;;1.90;;
5585;SDS011;2815;54.094;12.112;2023-04-07T07:13:25;3.67;;;1.95;;
5585;SDS011;2815;54.094;12.112;2023-04-07T07:15:53;4.10;;;2.00;;
5585;SDS011;2815;54.094;12.112;2023-04-07T07:18:21;4.80;;;1.98;;
5585;SDS011;2815;54.094;12.112;2023-04-07T07:20:49;2.42;;;1.73;;
5585;SDS011;2815;54.094;12.112;2023-04-07T07:23:17;3.40;;;2.00;;
5585;SDS011;2815;54.094;12.112;2023-04-07T07:25:47;3.50;;;2.20;;
5585;SDS011;2815;54.094;12.112;2023-04-07T07:28:15;4.00;;;2.17;;
5585;SDS011;2815;54.094;12.112;2023-04-07T07:30:43;4.57;;;2.05;;
5585;SDS011;2815;54.094;12.112;2023-04-07T07:33:11;4.40;;;2.22;;
5585;SDS011;2815;54.094;12.112;2023-04-07T07:35:40;3.63;;;1.95;;
5585;SDS011;2815;54.094;12.112;2023-04-07T07:38:08;7.68;;;2.80;;
5585;SDS011;2815;54.094;12.112;2023-04-07T07:40:36;4.75;;;2.25;;
5585;SDS011;2815;54.094;12.112;2023-04-07T07:43:05;2.92;;;1.73;;
5585;SDS011;2815;54.094;12.112;2023-04-07T07:45:33;4.85;;;2.25;;
5585;SDS011;2815;54.094;12.112;2023-04-07T07:48:01;9.15;;;2.22;;
5585;SDS011;2815;54.094;12.112;2023-04-07T07:50:29;4.07;;;1.92;;
5585;SDS011;2815;54.094;12.112;2023-04-07T07:52:57;6.38;;;2.38;;
5585;SDS011;2815;54.094;12.112;2023-04-07T07:55:25;3.40;;;2.00;;
5585;SDS011;2815;54.094;12.112;2023-04-07T07:57:53;5.93;;;2.28;;
5585;SDS011;2815;54.094;12.112;2023-04-07T08:00:22;3.08;;;1.77;;
5585;SDS011;2815;54.094;12.112;2023-04-07T08:02:50;3.33;;;1.95;;
5585;SDS011;2815;54.094;12.112;2023-04-07T08:05:18;3.25;;;2.10;;
5585;SDS011;2815;54.094;12.112;2023-04-07T08:07:47;3.72;;;1.80;;
5585;SDS011;2815;54.094;12.112;2023-04-07T08:10:16;5.32;;;2.30;;
5585;SDS011;2815;54.094;12.112;2023-04-07T08:12:45;7.40;;;2.00;;
5585;SDS011;2815;54.094;12.112;2023-04-07T08:15:13;4.82;;;2.05;;
5585;SDS011;2815;54.094;12.112;2023-04-07T08:17:44;5.63;;;2.40;;
5585;SDS011;2815;54.094;12.112;2023-04-07T08:20:12;2.95;;;1.90;;
5585;SDS011;2815;54.094;12.112;2023-04-07T08:22:40;4.40;;;2.22;;
5585;SDS011;2815;54.094;12.112;2023-04-07T08:25:08;6.32;;;2.40;;
5585;SDS011;2815;54.094;12.112;2023-04-07T08:27:36;4.68;;;2.60;;
5585;SDS011;2815;54.094;12.112;2023-04-07T08:30:05;4.07;;;2.60;;
5585;SDS011;2815;54.094;12.112;2023-04-07T08:32:34;7.10;;;2.85;;
5585;SDS011;2815;54.094;12.112;2023-04-07T08:35:04;3.90;;;2.45;;
5585;SDS011;2815;54.094;12.112;2023-04-07T08:37:32;4.30;;;2.58;;
5585;SDS011;2815;54.094;12.112;2023-04-07T08:40:01;5.53;;;2.33;;
5585;SDS011;2815;54.094;12.112;2023-04-07T08:42:30;4.75;;;2.20;;
5585;SDS011;2815;54.094;12.112;2023-04-07T08:45:01;4.63;;;2.20;;
5585;SDS011;2815;54.094;12.112;2023-04-07T08:47:31;3.13;;;2.05;;
5585;SDS011;2815;54.094;12.112;2023-04-07T08:50:00;5.57;;;1.95;;
5585;SDS011;2815;54.094;12.112;2023-04-07T08:52:33;5.05;;;2.53;;
5585;SDS011;2815;54.094;12.112;2023-04-07T08:55:08;3.38;;;2.40;;
5585;SDS011;2815;54.094;12.112;2023-04-07T08:57:40;3.65;;;2.25;;
5585;SDS011;2815;54.094;12.112;2023-04-07T09:00:14;3.38;;;2.70;;
5585;SDS011;2815;54.094;12.112;2023-04-07T09:02:42;5.15;;;2.33;;
5585;SDS011;2815;54.094;12.112;2023-04-07T09:05:11;4.35;;;2.08;;
5585;SDS011;2815;54.094;12.112;2023-04-07T09:07:42;4.38;;;2.75;;
5585;SDS011;2815;54.094;12.112;2023-04-07T09:10:10;2.97;;;2.10;;
5585;SDS011;2815;54.094;12.112;2023-04-07T09:12:38;6.53;;;2.80;;
5585;SDS011;2815;54.094;12.112;2023-04-07T09:15:06;4.15;;;2.88;;
5585;SDS011;2815;54.094;12.112;2023-04-07T09:17:35;6.53;;;3.08;;
5585;SDS011;2815;54.094;12.112;2023-04-07T09:20:03;4.97;;;2.58;;
5585;SDS011;2815;54.094;12.112;2023-04-07T09:22:35;3.65;;;2.20;;
5585;SDS011;2815;54.094;12.112;2023-04-07T09:25:13;4.00;;;2.95;;
5585;SDS011;2815;54.094;12.112;2023-04-07T09:27:55;3.13;;;2.35;;
5585;SDS011;2815;54.094;12.112;2023-04-07T09:30:24;3.10;;;2.33;;
5585;SDS011;2815;54.094;12.112;2023-04-07T09:32:53;6.65;;;2.45;;
5585;SDS011;2815;54.094;12.112;2023-04-07T09:35:21;5.38;;;2.72;;
5585;SDS011;2815;54.094;12.112;2023-04-07T09:37:59;4.38;;;3.00;;
5585;SDS011;2815;54.094;12.112;2023-04-07T09:40:30;4.38;;;2.50;;
5585;SDS011;2815;54.094;12.112;2023-04-07T09:42:58;5.15;;;2.80;;
5585;SDS011;2815;54.094;12.112;2023-04-07T09:45:27;6.88;;;2.97;;
5585;SDS011;2815;54.094;12.112;2023-04-07T09:48:04;2.83;;;2.17;;
5585;SDS011;2815;54.094;12.112;2023-04-07T09:50:32;4.38;;;2.42;;
5585;SDS011;2815;54.094;12.112;2023-04-07T09:53:01;3.72;;;2.38;;
5585;SDS011;2815;54.094;12.112;2023-04-07T09:55:31;5.00;;;2.67;;
5585;SDS011;2815;54.094;12.112;2023-04-07T09:58:00;4.40;;;2.90;;
5585;SDS011;2815;54.094;12.112;2023-04-07T10:00:28;3.85;;;2.60;;
5585;SDS011;2815;54.094;12.112;2023-04-07T10:02:56;3.90;;;2.60;;
5585;SDS011;2815;54.094;12.112;2023-04-07T10:05:24;4.35;;;2.53;;
5585;SDS011;2815;54.094;12.112;2023-04-07T10:07:52;3.15;;;2.40;;
5585;SDS011;2815;54.094;12.112;2023-04-07T10:10:21;7.03;;;2.85;;
5585;SDS011;2815;54.094;12.112;2023-04-07T10:12:50;5.93;;;2.53;;
5585;SDS011;2815;54.094;12.112;2023-04-07T10:15:19;4.30;;;2.50;;
5585;SDS011;2815;54.094;12.112;2023-04-07T10:17:48;6.07;;;2.67;;
5585;SDS011;2815;54.094;12.112;2023-04-07T10:20:17;4.30;;;2.63;;
5585;SDS011;2815;54.094;12.112;2023-04-07T10:22:47;4.30;;;2.55;;
5585;SDS011;2815;54.094;12.112;2023-04-07T10:25:16;7.72;;;2.67;;
5585;SDS011;2815;54.094;12.112;2023-04-07T10:27:46;4.45;;;2.58;;
5585;SDS011;2815;54.094;12.112;2023-04-07T10:30:19;5.50;;;2.88;;
5585;SDS011;2815;54.094;12.112;2023-04-07T10:32:49;4.13;;;2.70;;
5585;SDS011;2815;54.094;12.112;2023-04-07T10:35:19;4.03;;;2.60;;
5585;SDS011;2815;54.094;12.112;2023-04-07T10:40:42;3.03;;;2.10;;
5585;SDS011;2815;54.094;12.112;2023-04-07T10:43:10;5.35;;;2.40;;
5585;SDS011;2815;54.094;12.112;2023-04-07T10:45:51;5.53;;;2.35;;
5585;SDS011;2815;54.094;12.112;2023-04-07T10:48:21;3.83;;;2.40;;
5585;SDS011;2815;54.094;12.112;2023-04-07T10:59:30;3.85;;;2.58;;
5585;SDS011;2815;54.094;12.112;2023-04-07T11:05:02;5.47;;;3.17;;
5585;SDS011;2815;54.094;12.112;2023-04-07T11:07:44;5.10;;;2.88;;
5585;SDS011;2815;54.094;12.112;2023-04-07T11:10:14;4.97;;;3.15;;
5585;SDS011;2815;54.094;12.112;2023-04-07T11:12:56;5.03;;;2.50;;
5585;SDS011;2815;54.094;12.112;2023-04-07T11:15:26;7.32;;;3.20;;
5585;SDS011;2815;54.094;12.112;2023-04-07T11:20:49;4.65;;;2.83;;
5585;SDS011;2815;54.094;12.112;2023-04-07T11:23:19;3.45;;;2.17;;
5585;SDS011;2815;54.094;12.112;2023-04-07T11:25:49;3.15;;;2.55;;
5585;SDS011;2815;54.094;12.112;2023-04-07T11:28:19;5.25;;;3.10;;
5585;SDS011;2815;54.094;12.112;2023-04-07T11:30:48;4.15;;;2.60;;
5585;SDS011;2815;54.094;12.112;2023-04-07T11:33:18;4.85;;;2.40;;
5585;SDS011;2815;54.094;12.112;2023-04-07T11:35:49;3.65;;;2.00;;
5585;SDS011;2815;54.094;12.112;2023-04-07T11:38:19;6.57;;;2.83;;
5585;SDS011;2815;54.094;12.112;2023-04-07T11:40:47;5.07;;;2.58;;
5585;SDS011;2815;54.094;12.112;2023-04-07T11:43:19;4.43;;;2.83;;
5585;SDS011;2815;54.094;12.112;2023-04-07T11:46:04;4.82;;;2.80;;
5585;SDS011;2815;54.094;12.112;2023-04-07T11:48:34;4.05;;;2.88;;
5585;SDS011;2815;54.094;12.112;2023-04-07T11:51:04;5.78;;;2.55;;
5585;SDS011;2815;54.094;12.112;2023-04-07T11:53:33;5.45;;;2.88;;
5585;SDS011;2815;54.094;12.112;2023-04-07T11:56:04;3.60;;;2.10;;
5585;SDS011;2815;54.094;12.112;2023-04-07T11:58:35;4.45;;;2.72;;
5585;SDS011;2815;54.094;12.112;2023-04-07T12:01:04;6.07;;;3.03;;
5585;SDS011;2815;54.094;12.112;2023-04-07T12:03:34;4.68;;;2.55;;
5585;SDS011;2815;54.094;12.112;2023-04-07T12:06:04;5.70;;;2.95;;
5585;SDS011;2815;54.094;12.112;2023-04-07T12:08:36;8.35;;;2.78;;
5585;SDS011;2815;54.094;12.112;2023-04-07T12:11:05;5.00;;;2.85;;
5585;SDS011;2815;54.094;12.112;2023-04-07T12:13:33;3.30;;;2.05;;
5585;SDS011;2815;54.094;12.112;2023-04-07T12:16:02;6.30;;;3.03;;
5585;SDS011;2815;54.094;12.112;2023-04-07T12:18:30;6.97;;;2.65;;
5585;SDS011;2815;54.094;12.112;2023-04-07T12:20:58;6.95;;;3.50;;
5585;SDS011;2815;54.094;12.112;2023-04-07T12:23:28;10.82;;;3.10;;
5585;SDS011;2815;54.094;12.112;2023-04-07T12:25:56;3.35;;;2.33;;
5585;SDS011;2815;54.094;12.112;2023-04-07T12:28:24;5.72;;;3.08;;
5585;SDS011;2815;54.094;12.112;2023-04-07T12:30:53;6.38;;;3.00;;
5585;SDS011;2815;54.094;12.112;2023-04-07T12:33:21;5.88;;;3.13;;
5585;SDS011;2815;54.094;12.112;2023-04-07T12:35:49;4.50;;;2.75;;
5585;SDS011;2815;54.094;12.112;2023-04-07T12:38:17;4.85;;;2.97;;
5585;SDS011;2815;54.094;12.112;2023-04-07T12:40:46;6.07;;;3.67;;
5585;SDS011;2815;54.094;12.112;2023-04-07T12:43:14;6.20;;;3.30;;
5585;SDS011;2815;54.094;12.112;2023-04-07T12:45:42;8.50;;;3.45;;
5585;SDS011;2815;54.094;12.112;2023-04-07T12:48:10;4.88;;;3.00;;
5585;SDS011;2815;54.094;12.112;2023-04-07T12:50:38;7.05;;;3.30;;
5585;SDS011;2815;54.094;12.112;2023-04-07T12:53:06;6.95;;;3.30;;
5585;SDS011;2815;54.094;12.112;2023-04-07T12:55:34;4.82;;;3.15;;
5585;SDS011;2815;54.094;12.112;2023-04-07T12:58:04;10.10;;;3.83;;
5585;SDS011;2815;54.094;12.112;2023-04-07T13:00:32;5.40;;;3.38;;
5585;SDS011;2815;54.094;12.112;2023-04-07T13:03:00;5.50;;;3.22;;
5585;SDS011;2815;54.094;12.112;2023-04-07T13:05:29;6.55;;;2.88;;
5585;SDS011;2815;54.094;12.112;2023-04-07T13:07:57;4.85;;;3.08;;
5585;SDS011;2815;54.094;12.112;2023-04-07T13:10:25;3.92;;;2.80;;
5585;SDS011;2815;54.094;12.112;2023-04-07T13:12:54;5.47;;;3.15;;
5585;SDS011;2815;54.094;12.112;2023-04-07T13:15:23;6.78;;;3.85;;
5585;SDS011;2815;54.094;12.112;2023-04-07T13:17:51;11.82;;;4.13;;
5585;SDS011;2815;54.094;12.112;2023-04-07T13:20:19;6.65;;;3.53;;
5585;SDS011;2815;54.094;12.112;2023-04-07T13:22:47;7.32;;;3.80;;
5585;SDS011;2815;54.094;12.112;2023-04-07T13:27:59;7.45;;;3.83;;
5585;SDS011;2815;54.094;12.112;2023-04-07T13:30:28;6.25;;;3.17;;
5585;SDS011;2815;54.094;12.112;2023-04-07T13:32:56;8.68;;;3.90;;
5585;SDS011;2815;54.094;12.112;2023-04-07T13:35:24;6.65;;;4.15;;
5585;SDS011;2815;54.094;12.112;2023-04-07T13:37:52;5.95;;;3.45;;
5585;SDS011;2815;54.094;12.112;2023-04-07T13:40:20;7.35;;;4.00;;
5585;SDS011;2815;54.094;12.112;2023-04-07T13:42:49;6.40;;;3.70;;
5585;SDS011;2815;54.094;12.112;2023-04-07T13:45:16;8.48;;;4.60;;
5585;SDS011;2815;54.094;12.112;2023-04-07T13:47:46;7.93;;;4.57;;
5585;SDS011;2815;54.094;12.112;2023-04-07T13:50:14;7.22;;;4.40;;
5585;SDS011;2815;54.094;12.112;2023-04-07T13:52:45;8.85;;;3.50;;
5585;SDS011;2815;54.094;12.112;2023-04-07T13:55:13;11.35;;;4.53;;
5585;SDS011;2815;54.094;12.112;2023-04-07T13:57:42;9.98;;;5.13;;
5585;SDS011;2815;54.094;12.112;2023-04-07T14:00:10;6.75;;;4.03;;
5585;SDS011;2815;54.094;12.112;2023-04-07T14:02:39;10.40;;;4.57;;
5585;SDS011;2815;54.094;12.112;2023-04-07T14:05:09;9.07;;;3.88;;
5585;SDS011;2815;54.094;12.112;2023-04-07T14:07:37;10.65;;;4.63;;
5585;SDS011;2815;54.094;12.112;2023-04-07T14:10:05;9.18;;;4.30;;
5585;SDS011;2815;54.094;12.112;2023-04-07T14:12:36;7.60;;;4.03;;
5585;SDS011;2815;54.094;12.112;2023-04-07T14:15:04;8.43;;;4.50;;
5585;SDS011;2815;54.094;12.112;2023-04-07T14:17:33;8.55;;;3.92;;
5585;SDS011;2815;54.094;12.112;2023-04-07T14:20:02;9.48;;;4.15;;
5585;SDS011;2815;54.094;12.112;2023-04-07T14:22:32;8.05;;;4.40;;
5585;SDS011;2815;54.094;12.112;2023-04-07T14:25:00;8.15;;;4.57;;
5585;SDS011;2815;54.094;12.112;2023-04-07T14:27:29;7.53;;;4.53;;
5585;SDS011;2815;54.094;12.112;2023-04-07T14:29:57;11.40;;;4.30;;
5585;SDS011;2815;54.094;12.112;2023-04-07T14:32:25;8.55;;;4.00;;
5585;SDS011;2815;54.094;12.112;2023-04-07T14:34:55;6.95;;;4.10;;
5585;SDS011;2815;54.094;12.112;2023-04-07T14:37:24;7.45;;;3.75;;
5585;SDS011;2815;54.094;12.112;2023-04-07T14:39:55;7.55;;;4.50;;
5585;SDS011;2815;54.094;12.112;2023-04-07T14:42:26;9.00;;;5.32;;
5585;SDS011;2815;54.094;12.112;2023-04-07T14:44:55;9.32;;;4.53;;
5585;SDS011;2815;54.094;12.112;2023-04-07T14:47:23;8.95;;;4.53;;
5585;SDS011;2815;54.094;12.112;2023-04-07T14:49:52;9.02;;;4.38;;
5585;SDS011;2815;54.094;12.112;2023-04-07T14:52:21;4.72;;;2.90;;
5585;SDS011;2815;54.094;12.112;2023-04-07T14:54:49;8.32;;;4.05;;
5585;SDS011;2815;54.094;12.112;2023-04-07T14:57:18;8.88;;;4.25;;
5585;SDS011;2815;54.094;12.112;2023-04-07T14:59:47;12.75;;;3.85;;
5585;SDS011;2815;54.094;12.112;2023-04-07T15:02:15;6.85;;;3.92;;
5585;SDS011;2815;54.094;12.112;2023-04-07T15:04:43;8.38;;;3.60;;
5585;SDS011;2815;54.094;12.112;2023-04-07T15:07:11;6.00;;;3.25;;
5585;SDS011;2815;54.094;12.112;2023-04-07T15:09:40;5.72;;;3.55;;
5585;SDS011;2815;54.094;12.112;2023-04-07T15:12:08;12.13;;;3.88;;
5585;SDS011;2815;54.094;12.112;2023-04-07T15:14:37;7.10;;;4.38;;
5585;SDS011;2815;54.094;12.112;2023-04-07T15:17:05;7.00;;;3.67;;
5585;SDS011;2815;54.094;12.112;2023-04-07T15:19:33;7.80;;;4.07;;
5585;SDS011;2815;54.094;12.112;2023-04-07T15:22:01;6.63;;;4.40;;
5585;SDS011;2815;54.094;12.112;2023-04-07T15:24:29;6.65;;;4.00;;
5585;SDS011;2815;54.094;12.112;2023-04-07T15:26:57;7.80;;;4.03;;
5585;SDS011;2815;54.094;12.112;2023-04-07T15:29:25;8.40;;;4.18;;
5585;SDS011;2815;54.094;12.112;2023-04-07T15:31:54;8.35;;;4.10;;
5585;SDS011;2815;54.094;12.112;2023-04-07T15:34:22;7.18;;;4.45;;
5585;SDS011;2815;54.094;12.112;2023-04-07T15:36:50;8.02;;;3.42;;
5585;SDS011;2815;54.094;12.112;2023-04-07T15:39:18;7.68;;;3.85;;
5585;SDS011;2815;54.094;12.112;2023-04-07T15:41:46;7.72;;;3.95;;
5585;SDS011;2815;54.094;12.112;2023-04-07T15:44:15;6.60;;;4.10;;